sensor_id;sensor_type;location;lat;lon;timestamp;pressure;altitude;pressure_sealevel;temperature;humidity
47883;BME280;37739;50.350;7.578;2023-07-20T00:02:10;99542.41;;;19.75;52.68
47883;BME280;37739;50.350;7.578;2023-07-20T00:04:35;99540.66;;;19.71;52.86
47883;BME280;37739;50.350;7.578;2023-07-20T00:07:03;99545.88;;;19.64;53.10
47883;BME280;37739;50.350;7.578;2023-07-20T00:09:33;99548.53;;;19.56;53.27
47883;BME280;37739;50.350;7.578;2023-07-20T00:11:58;99546.81;;;19.47;53.58
47883;BME280;37739;50.350;7.578;2023-07-20T00:14:25;99548.53;;;19.43;53.33
47883;BME280;37739;50.350;7.578;2023-07-20T00:16:51;99550.31;;;19.38;53.45
47883;BME280;37739;50.350;7.578;2023-07-20T00:19:24;99542.50;;;19.35;53.82
47883;BME280;37739;50.350;7.578;2023-07-20T00:21:52;99545.13;;;19.28;54.17
47883;BME280;37739;50.350;7.578;2023-07-20T00:24:17;99539.06;;;19.27;54.17
47883;BME280;37739;50.350;7.578;2023-07-20T00:26:45;99548.59;;;19.28;53.81
47883;BME280;37739;50.350;7.578;2023-07-20T00:29:10;99543.38;;;19.30;53.89
47883;BME280;37739;50.350;7.578;2023-07-20T00:31:36;99548.59;;;19.30;53.64
47883;BME280;37739;50.350;7.578;2023-07-20T00:34:03;99548.63;;;19.27;54.03
47883;BME280;37739;50.350;7.578;2023-07-20T00:36:28;99547.75;;;19.23;53.98
47883;BME280;37739;50.350;7.578;2023-07-20T00:38:56;99539.06;;;19.24;54.15
47883;BME280;37739;50.350;7.578;2023-07-20T00:41:24;99540.81;;;19.22;54.04
47883;BME280;37739;50.350;7.578;2023-07-20T00:43:49;99542.56;;;19.23;54.07
47883;BME280;37739;50.350;7.578;2023-07-20T00:46:15;99539.06;;;19.22;54.64
47883;BME280;37739;50.350;7.578;2023-07-20T00:48:41;99543.41;;;19.22;54.23
47883;BME280;37739;50.350;7.578;2023-07-20T00:51:10;99536.47;;;19.22;54.52
47883;BME280;37739;50.350;7.578;2023-07-20T00:53:35;99540.81;;;19.20;54.77
47883;BME280;37739;50.350;7.578;2023-07-20T00:56:01;99538.22;;;19.16;54.71
47883;BME280;37739;50.350;7.578;2023-07-20T00:58:29;99547.78;;;19.17;54.76
47883;BME280;37739;50.350;7.578;2023-07-20T01:00:59;99546.91;;;19.12;55.20
47883;BME280;37739;50.350;7.578;2023-07-20T01:03:24;99548.63;;;19.13;54.45
47883;BME280;37739;50.350;7.578;2023-07-20T01:06:12;99541.69;;;19.12;56.07
47883;BME280;37739;50.350;7.578;2023-07-20T01:08:45;99559.03;;;19.10;55.15
47883;BME280;37739;50.350;7.578;2023-07-20T01:11:16;99545.19;;;18.98;55.70
47883;BME280;37739;50.350;7.578;2023-07-20T01:13:48;99546.06;;;19.02;54.81
47883;BME280;37739;50.350;7.578;2023-07-20T01:16:16;99546.03;;;19.08;54.92
47883;BME280;37739;50.350;7.578;2023-07-20T01:18:44;99545.16;;;19.11;55.14
47883;BME280;37739;50.350;7.578;2023-07-20T01:21:13;99551.25;;;19.10;55.21
47883;BME280;37739;50.350;7.578;2023-07-20T01:29:33;99556.44;;;19.00;55.25
47883;BME280;37739;50.350;7.578;2023-07-20T01:32:02;99570.31;;;18.99;54.90
47883;BME280;37739;50.350;7.578;2023-07-20T01:34:35;99571.16;;;18.75;56.03
47883;BME280;37739;50.350;7.578;2023-07-20T01:37:02;99559.03;;;18.74;56.39
47883;BME280;37739;50.350;7.578;2023-07-20T01:39:33;99563.38;;;18.75;56.09
47883;BME280;37739;50.350;7.578;2023-07-20T01:41:59;99566.88;;;18.87;55.86
47883;BME280;37739;50.350;7.578;2023-07-20T01:44:27;99563.38;;;18.89;55.83
47883;BME280;37739;50.350;7.578;2023-07-20T01:46:53;99572.94;;;18.90;56.05
47883;BME280;37739;50.350;7.578;2023-07-20T01:49:20;99569.47;;;18.80;56.50
47883;BME280;37739;50.350;7.578;2023-07-20T01:51:46;99567.69;;;18.79;56.66
47883;BME280;37739;50.350;7.578;2023-07-20T01:54:11;99561.63;;;18.74;56.77
47883;BME280;37739;50.350;7.578;2023-07-20T01:56:36;99563.34;;;18.74;57.01
47883;BME280;37739;50.350;7.578;2023-07-20T01:59:04;99564.22;;;18.67;57.61
47883;BME280;37739;50.350;7.578;2023-07-20T02:01:32;99547.78;;;18.61;58.23
47883;BME280;37739;50.350;7.578;2023-07-20T02:03:57;99547.75;;;18.64;57.49
47883;BME280;37739;50.350;7.578;2023-07-20T02:06:22;99557.31;;;18.59;58.17
47883;BME280;37739;50.350;7.578;2023-07-20T02:08:50;99563.34;;;18.52;58.70
47883;BME280;37739;50.350;7.578;2023-07-20T02:11:18;99556.41;;;18.53;58.18
47883;BME280;37739;50.350;7.578;2023-07-20T02:13:46;99548.63;;;18.67;57.77
47883;BME280;37739;50.350;7.578;2023-07-20T02:16:13;99553.84;;;18.71;58.32
47883;BME280;37739;50.350;7.578;2023-07-20T02:18:39;99546.03;;;18.71;57.75
47883;BME280;37739;50.350;7.578;2023-07-20T02:21:04;99540.84;;;18.73;57.76
47883;BME280;37739;50.350;7.578;2023-07-20T02:23:30;99541.69;;;18.72;58.06
47883;BME280;37739;50.350;7.578;2023-07-20T02:25:58;99546.06;;;18.65;58.79
47883;BME280;37739;50.350;7.578;2023-07-20T02:28:23;99550.38;;;18.54;58.58
47883;BME280;37739;50.350;7.578;2023-07-20T02:30:49;99544.28;;;18.53;58.56
47883;BME280;37739;50.350;7.578;2023-07-20T02:33:15;99543.44;;;18.56;58.14
47883;BME280;37739;50.350;7.578;2023-07-20T02:35:44;99546.88;;;18.53;57.94
47883;BME280;37739;50.350;7.578;2023-07-20T02:38:14;99548.63;;;18.45;57.86
47883;BME280;37739;50.350;7.578;2023-07-20T02:40:42;99546.91;;;18.49;57.84
47883;BME280;37739;50.350;7.578;2023-07-20T02:43:10;99545.19;;;18.54;57.49
47883;BME280;37739;50.350;7.578;2023-07-20T02:45:35;99546.03;;;18.51;57.46
47883;BME280;37739;50.350;7.578;2023-07-20T02:48:04;99539.97;;;18.51;57.32
47883;BME280;37739;50.350;7.578;2023-07-20T02:50:33;99540.84;;;18.48;57.44
47883;BME280;37739;50.350;7.578;2023-07-20T02:52:59;99546.88;;;18.32;57.63
47883;BME280;37739;50.350;7.578;2023-07-20T02:55:25;99548.63;;;18.34;57.44
47883;BME280;37739;50.350;7.578;2023-07-20T02:57:50;99549.50;;;18.36;57.42
47883;BME280;37739;50.350;7.578;2023-07-20T03:00:17;99553.78;;;18.36;57.51
47883;BME280;37739;50.350;7.578;2023-07-20T03:02:46;99550.34;;;18.31;57.80
47883;BME280;37739;50.350;7.578;2023-07-20T03:05:17;99549.47;;;18.35;57.58
47883;BME280;37739;50.350;7.578;2023-07-20T03:07:43;99550.31;;;18.20;57.66
47883;BME280;37739;50.350;7.578;2023-07-20T03:10:13;99547.72;;;18.21;57.68
47883;BME280;37739;50.350;7.578;2023-07-20T03:12:43;99548.59;;;18.23;57.75
47883;BME280;37739;50.350;7.578;2023-07-20T03:15:09;99550.34;;;18.28;57.76
47883;BME280;37739;50.350;7.578;2023-07-20T03:17:34;99552.06;;;18.27;57.53
47883;BME280;37739;50.350;7.578;2023-07-20T03:20:02;99558.13;;;18.24;57.64
47883;BME280;37739;50.350;7.578;2023-07-20T03:22:28;99551.19;;;18.17;58.05
47883;BME280;37739;50.350;7.578;2023-07-20T03:24:55;99549.44;;;18.15;57.93
47883;BME280;37739;50.350;7.578;2023-07-20T03:27:23;99563.28;;;18.14;58.17
47883;BME280;37739;50.350;7.578;2023-07-20T03:29:48;99569.31;;;18.00;58.30
47883;BME280;37739;50.350;7.578;2023-07-20T03:32:13;99566.72;;;18.02;58.67
47883;BME280;37739;50.350;7.578;2023-07-20T03:34:39;99570.16;;;17.96;58.84
47883;BME280;37739;50.350;7.578;2023-07-20T03:37:05;99562.34;;;17.92;59.17
47883;BME280;37739;50.350;7.578;2023-07-20T03:39:31;99564.84;;;17.76;59.39
47883;BME280;37739;50.350;7.578;2023-07-20T03:41:58;99561.41;;;17.76;59.50
47883;BME280;37739;50.350;7.578;2023-07-20T03:44:25;99562.28;;;17.75;59.50
47883;BME280;37739;50.350;7.578;2023-07-20T03:46:53;99564.03;;;17.83;59.36
47883;BME280;37739;50.350;7.578;2023-07-20T03:49:18;99563.22;;;17.91;59.02
47883;BME280;37739;50.350;7.578;2023-07-20T03:51:43;99564.97;;;17.90;59.00
47883;BME280;37739;50.350;7.578;2023-07-20T03:54:11;99572.72;;;17.89;59.03
47883;BME280;37739;50.350;7.578;2023-07-20T03:56:38;99573.59;;;17.86;59.28
47883;BME280;37739;50.350;7.578;2023-07-20T03:59:06;99578.78;;;17.88;59.57
47883;BME280;37739;50.350;7.578;2023-07-20T04:01:31;99568.41;;;17.86;59.20
47883;BME280;37739;50.350;7.578;2023-07-20T04:04:02;99564.06;;;17.90;59.18
47883;BME280;37739;50.350;7.578;2023-07-20T04:06:29;99569.28;;;17.88;59.79
47883;BME280;37739;50.350;7.578;2023-07-20T04:08:54;99566.66;;;17.87;59.41
47883;BME280;37739;50.350;7.578;2023-07-20T04:11:22;99566.66;;;17.90;59.76
47883;BME280;37739;50.350;7.578;2023-07-20T04:13:47;99567.44;;;17.76;59.88
47883;BME280;37739;50.350;7.578;2023-07-20T04:16:13;99560.53;;;17.80;59.92
47883;BME280;37739;50.350;7.578;2023-07-20T04:18:38;99562.31;;;17.84;59.63
47883;BME280;37739;50.350;7.578;2023-07-20T04:21:03;99566.63;;;17.80;59.92
47883;BME280;37739;50.350;7.578;2023-07-20T04:23:32;99564.00;;;17.77;59.77
47883;BME280;37739;50.350;7.578;2023-07-20T04:26:02;99572.63;;;17.76;60.37
47883;BME280;37739;50.350;7.578;2023-07-20T04:28:28;99567.44;;;17.76;60.14
47883;BME280;37739;50.350;7.578;2023-07-20T04:30:53;99572.66;;;17.79;59.86
47883;BME280;37739;50.350;7.578;2023-07-20T04:33:19;99572.63;;;17.70;60.10
47883;BME280;37739;50.350;7.578;2023-07-20T04:35:52;99573.44;;;17.58;61.59
47883;BME280;37739;50.350;7.578;2023-07-20T04:38:20;99572.53;;;17.52;61.07
47883;BME280;37739;50.350;7.578;2023-07-20T04:40:49;99580.31;;;17.52;60.98
47883;BME280;37739;50.350;7.578;2023-07-20T04:43:17;99581.97;;;17.43;62.34
47883;BME280;37739;50.350;7.578;2023-07-20T04:45:44;99585.47;;;17.47;61.11
47883;BME280;37739;50.350;7.578;2023-07-20T04:48:13;99582.88;;;17.49;61.36
47883;BME280;37739;50.350;7.578;2023-07-20T04:50:44;99586.31;;;17.44;61.87
47883;BME280;37739;50.350;7.578;2023-07-20T04:53:12;99580.28;;;17.47;61.20
47883;BME280;37739;50.350;7.578;2023-07-20T04:55:39;99587.22;;;17.51;62.09
47883;BME280;37739;50.350;7.578;2023-07-20T04:58:07;99591.59;;;17.55;61.11
47883;BME280;37739;50.350;7.578;2023-07-20T05:00:33;99588.16;;;17.65;60.52
47883;BME280;37739;50.350;7.578;2023-07-20T05:02:58;99579.50;;;17.57;60.94
47883;BME280;37739;50.350;7.578;2023-07-20T05:05:24;99582.06;;;17.54;61.09
47883;BME280;37739;50.350;7.578;2023-07-20T05:07:51;99588.09;;;17.52;61.44
47883;BME280;37739;50.350;7.578;2023-07-20T05:10:22;99595.91;;;17.61;61.26
47883;BME280;37739;50.350;7.578;2023-07-20T05:12:50;99594.22;;;17.61;60.97
47883;BME280;37739;50.350;7.578;2023-07-20T05:15:15;99594.25;;;17.69;60.72
47883;BME280;37739;50.350;7.578;2023-07-20T05:17:41;99590.78;;;17.76;60.37
47883;BME280;37739;50.350;7.578;2023-07-20T05:20:09;99583.88;;;17.72;60.39
47883;BME280;37739;50.350;7.578;2023-07-20T05:22:38;99594.22;;;17.61;60.96
47883;BME280;37739;50.350;7.578;2023-07-20T05:25:06;99602.00;;;17.63;61.02
47883;BME280;37739;50.350;7.578;2023-07-20T05:27:37;99597.72;;;17.71;60.87
47883;BME280;37739;50.350;7.578;2023-07-20T05:30:04;99592.50;;;17.74;60.46
47883;BME280;37739;50.350;7.578;2023-07-20T05:32:29;99593.38;;;17.72;60.24
47883;BME280;37739;50.350;7.578;2023-07-20T05:34:57;99598.56;;;17.70;60.34
47883;BME280;37739;50.350;7.578;2023-07-20T05:37:24;99598.47;;;17.55;60.87
47883;BME280;37739;50.350;7.578;2023-07-20T05:39:50;99595.03;;;17.56;61.61
47883;BME280;37739;50.350;7.578;2023-07-20T05:42:16;99598.50;;;17.56;61.01
47883;BME280;37739;50.350;7.578;2023-07-20T05:44:41;99586.44;;;17.66;60.91
47883;BME280;37739;50.350;7.578;2023-07-20T05:47:07;99595.09;;;17.74;60.60
47883;BME280;37739;50.350;7.578;2023-07-20T05:49:37;99594.28;;;17.80;60.20
47883;BME280;37739;50.350;7.578;2023-07-20T05:52:05;99597.72;;;17.73;60.54
47883;BME280;37739;50.350;7.578;2023-07-20T05:54:30;99603.72;;;17.65;60.77
47883;BME280;37739;50.350;7.578;2023-07-20T05:56:58;99607.19;;;17.67;60.60
47883;BME280;37739;50.350;7.578;2023-07-20T05:59:27;99609.81;;;17.72;61.08
47883;BME280;37739;50.350;7.578;2023-07-20T06:01:56;99601.19;;;17.73;60.68
47883;BME280;37739;50.350;7.578;2023-07-20T06:04:22;99599.47;;;17.81;60.86
47883;BME280;37739;50.350;7.578;2023-07-20T06:06:50;99599.53;;;17.86;60.37
47883;BME280;37739;50.350;7.578;2023-07-20T06:09:15;99604.75;;;17.97;60.55
47883;BME280;37739;50.350;7.578;2023-07-20T06:11:41;99606.53;;;18.05;60.25
47883;BME280;37739;50.350;7.578;2023-07-20T06:14:06;99616.06;;;18.13;59.86
47883;BME280;37739;50.350;7.578;2023-07-20T06:16:32;99614.38;;;18.21;59.97
47883;BME280;37739;50.350;7.578;2023-07-20T06:19:00;99608.34;;;18.36;59.85
47883;BME280;37739;50.350;7.578;2023-07-20T06:21:28;99614.44;;;18.49;59.30
47883;BME280;37739;50.350;7.578;2023-07-20T06:23:54;99614.44;;;18.49;59.60
47883;BME280;37739;50.350;7.578;2023-07-20T06:26:21;99620.50;;;18.48;59.28
47883;BME280;37739;50.350;7.578;2023-07-20T06:28:49;99620.47;;;18.49;59.66
47883;BME280;37739;50.350;7.578;2023-07-20T06:31:16;99621.38;;;18.50;59.85
47883;BME280;37739;50.350;7.578;2023-07-20T06:33:44;99613.53;;;18.43;59.56
47883;BME280;37739;50.350;7.578;2023-07-20T06:36:09;99626.53;;;18.45;60.07
47883;BME280;37739;50.350;7.578;2023-07-20T06:38:37;99623.09;;;18.52;59.47
47883;BME280;37739;50.350;7.578;2023-07-20T06:41:05;99620.53;;;18.71;59.46
47883;BME280;37739;50.350;7.578;2023-07-20T06:43:30;99625.78;;;18.86;58.78
47883;BME280;37739;50.350;7.578;2023-07-20T06:45:55;99624.03;;;18.82;59.36
47883;BME280;37739;50.350;7.578;2023-07-20T06:48:21;99625.75;;;18.77;59.24
47883;BME280;37739;50.350;7.578;2023-07-20T06:50:47;99622.25;;;18.73;59.26
47883;BME280;37739;50.350;7.578;2023-07-20T06:53:15;99621.38;;;18.70;59.41
47883;BME280;37739;50.350;7.578;2023-07-20T06:55:44;99625.75;;;18.77;59.97
47883;BME280;37739;50.350;7.578;2023-07-20T06:58:11;99630.09;;;18.89;59.23
47883;BME280;37739;50.350;7.578;2023-07-20T07:00:37;99628.38;;;18.98;58.98
47883;BME280;37739;50.350;7.578;2023-07-20T07:03:05;99630.09;;;19.15;58.83
47883;BME280;37739;50.350;7.578;2023-07-20T07:05:30;99626.63;;;19.25;58.73
47883;BME280;37739;50.350;7.578;2023-07-20T07:07:56;99631.81;;;19.30;58.23
47883;BME280;37739;50.350;7.578;2023-07-20T07:10:26;99623.13;;;19.35;58.66
47883;BME280;37739;50.350;7.578;2023-07-20T07:12:51;99625.69;;;19.75;57.39
47883;BME280;37739;50.350;7.578;2023-07-20T07:15:17;99627.34;;;19.98;57.04
47883;BME280;37739;50.350;7.578;2023-07-20T07:17:42;99631.72;;;19.84;57.04
47883;BME280;37739;50.350;7.578;2023-07-20T07:20:10;99627.38;;;19.84;57.30
47883;BME280;37739;50.350;7.578;2023-07-20T07:22:38;99622.22;;;19.75;57.08
47883;BME280;37739;50.350;7.578;2023-07-20T07:25:04;99622.22;;;19.75;57.46
47883;BME280;37739;50.350;7.578;2023-07-20T07:27:32;99623.06;;;19.80;57.60
47883;BME280;37739;50.350;7.578;2023-07-20T07:29:58;99627.38;;;19.69;57.72
47883;BME280;37739;50.350;7.578;2023-07-20T07:32:26;99632.63;;;19.73;57.87
47883;BME280;37739;50.350;7.578;2023-07-20T07:34:53;99625.66;;;19.83;57.49
47883;BME280;37739;50.350;7.578;2023-07-20T07:37:19;99632.44;;;20.18;56.71
47883;BME280;37739;50.350;7.578;2023-07-20T07:39:45;99632.28;;;20.47;55.70
47883;BME280;37739;50.350;7.578;2023-07-20T07:42:13;99628.75;;;20.61;54.97
47883;BME280;37739;50.350;7.578;2023-07-20T07:44:38;99631.31;;;20.67;55.08
47883;BME280;37739;50.350;7.578;2023-07-20T07:47:04;99630.41;;;20.74;54.72
47883;BME280;37739;50.350;7.578;2023-07-20T07:49:29;99630.44;;;20.71;54.85
47883;BME280;37739;50.350;7.578;2023-07-20T07:51:57;99634.88;;;20.59;55.45
47883;BME280;37739;50.350;7.578;2023-07-20T07:54:27;99640.97;;;20.51;55.79
47883;BME280;37739;50.350;7.578;2023-07-20T07:56:53;99646.25;;;20.34;55.92
47883;BME280;37739;50.350;7.578;2023-07-20T07:59:18;99641.97;;;20.27;56.40
47883;BME280;37739;50.350;7.578;2023-07-20T08:01:46;99647.19;;;20.27;55.82
47883;BME280;37739;50.350;7.578;2023-07-20T08:04:13;99645.44;;;20.29;56.05
47883;BME280;37739;50.350;7.578;2023-07-20T08:06:39;99647.00;;;20.62;55.73
47883;BME280;37739;50.350;7.578;2023-07-20T08:09:06;99645.94;;;20.88;54.83
47883;BME280;37739;50.350;7.578;2023-07-20T08:11:34;99645.97;;;20.86;54.77
47883;BME280;37739;50.350;7.578;2023-07-20T08:14:00;99649.47;;;20.85;54.12
47883;BME280;37739;50.350;7.578;2023-07-20T08:16:26;99648.75;;;20.55;54.82
47883;BME280;37739;50.350;7.578;2023-07-20T08:18:53;99644.50;;;20.42;55.07
47883;BME280;37739;50.350;7.578;2023-07-20T08:21:19;99654.06;;;20.40;55.04
47883;BME280;37739;50.350;7.578;2023-07-20T08:23:44;99655.78;;;20.44;55.12
47883;BME280;37739;50.350;7.578;2023-07-20T08:26:12;99654.84;;;20.51;54.78
47883;BME280;37739;50.350;7.578;2023-07-20T08:28:40;99650.53;;;20.49;54.90
47883;BME280;37739;50.350;7.578;2023-07-20T08:31:08;99649.72;;;20.36;54.81
47883;BME280;37739;50.350;7.578;2023-07-20T08:33:35;99645.09;;;20.86;53.93
47883;BME280;37739;50.350;7.578;2023-07-20T08:36:03;99641.25;;;21.30;52.93
47883;BME280;37739;50.350;7.578;2023-07-20T08:38:29;99645.53;;;21.38;53.02
47883;BME280;37739;50.350;7.578;2023-07-20T08:40:54;99648.03;;;21.51;52.31
47883;BME280;37739;50.350;7.578;2023-07-20T08:43:23;99645.81;;;21.05;52.51
47883;BME280;37739;50.350;7.578;2023-07-20T08:45:55;99648.56;;;20.88;52.79
47883;BME280;37739;50.350;7.578;2023-07-20T08:48:21;99647.00;;;20.65;53.33
47883;BME280;37739;50.350;7.578;2023-07-20T08:50:51;99653.94;;;20.57;53.47
47883;BME280;37739;50.350;7.578;2023-07-20T08:53:17;99656.59;;;20.54;52.98
47883;BME280;37739;50.350;7.578;2023-07-20T08:55:48;99654.78;;;20.73;52.84
47883;BME280;37739;50.350;7.578;2023-07-20T08:58:15;99658.31;;;20.55;51.74
47883;BME280;37739;50.350;7.578;2023-07-20T09:00:41;99661.84;;;20.45;52.39
47883;BME280;37739;50.350;7.578;2023-07-20T09:03:10;99659.16;;;20.57;52.03
47883;BME280;37739;50.350;7.578;2023-07-20T09:05:38;99653.94;;;20.66;52.23
47883;BME280;37739;50.350;7.578;2023-07-20T09:08:10;99651.09;;;20.98;51.45
47883;BME280;37739;50.350;7.578;2023-07-20T09:10:35;99656.00;;;21.32;50.64
47883;BME280;37739;50.350;7.578;2023-07-20T09:13:03;99656.81;;;21.44;50.38
47883;BME280;37739;50.350;7.578;2023-07-20T09:15:29;99653.19;;;21.55;50.00
47883;BME280;37739;50.350;7.578;2023-07-20T09:17:54;99655.06;;;21.43;50.38
47883;BME280;37739;50.350;7.578;2023-07-20T09:20:20;99659.44;;;21.41;49.64
47883;BME280;37739;50.350;7.578;2023-07-20T09:22:50;99656.63;;;21.64;49.68
47883;BME280;37739;50.350;7.578;2023-07-20T09:25:18;99655.44;;;21.91;49.36
47883;BME280;37739;50.350;7.578;2023-07-20T09:27:50;99651.53;;;22.29;48.85
47883;BME280;37739;50.350;7.578;2023-07-20T09:30:16;99651.13;;;22.60;48.40
47883;BME280;37739;50.350;7.578;2023-07-20T09:32:45;99646.50;;;22.10;48.32
47883;BME280;37739;50.350;7.578;2023-07-20T09:35:18;99660.78;;;21.82;48.93
47883;BME280;37739;50.350;7.578;2023-07-20T09:37:59;99655.03;;;21.50;49.48
47883;BME280;37739;50.350;7.578;2023-07-20T09:40:26;99645.69;;;22.05;48.52
47883;BME280;37739;50.350;7.578;2023-07-20T09:42:55;99644.38;;;22.42;48.07
47883;BME280;37739;50.350;7.578;2023-07-20T09:45:30;99639.59;;;22.71;46.86
47883;BME280;37739;50.350;7.578;2023-07-20T09:48:08;99640.94;;;22.96;46.31
47883;BME280;37739;50.350;7.578;2023-07-20T09:50:40;99642.53;;;23.07;46.29
47883;BME280;37739;50.350;7.578;2023-07-20T09:53:13;99632.81;;;23.16;45.85
47883;BME280;37739;50.350;7.578;2023-07-20T09:55:44;99633.19;;;23.44;45.13
47883;BME280;37739;50.350;7.578;2023-07-20T09:58:12;99635.78;;;23.45;44.85
47883;BME280;37739;50.350;7.578;2023-07-20T10:00:39;99634.78;;;23.51;44.24
47883;BME280;37739;50.350;7.578;2023-07-20T10:03:05;99635.34;;;23.68;44.29
47883;BME280;37739;50.350;7.578;2023-07-20T10:05:39;99629.22;;;23.69;43.46
47883;BME280;37739;50.350;7.578;2023-07-20T10:08:07;99622.59;;;23.97;43.11
47883;BME280;37739;50.350;7.578;2023-07-20T10:10:41;99617.94;;;24.09;42.66
47883;BME280;37739;50.350;7.578;2023-07-20T10:13:16;99616.06;;;24.16;41.45
47883;BME280;37739;50.350;7.578;2023-07-20T10:15:53;99615.06;;;24.22;41.04
47883;BME280;37739;50.350;7.578;2023-07-20T10:18:29;99614.44;;;24.51;41.31
47883;BME280;37739;50.350;7.578;2023-07-20T10:20:57;99609.03;;;24.95;41.95
47883;BME280;37739;50.350;7.578;2023-07-20T10:23:26;99607.53;;;25.19;41.10
47883;BME280;37739;50.350;7.578;2023-07-20T10:25:53;99605.63;;;24.91;39.40
47883;BME280;37739;50.350;7.578;2023-07-20T10:28:21;99603.66;;;24.24;41.28
47883;BME280;37739;50.350;7.578;2023-07-20T10:30:48;99608.66;;;23.96;42.79
47883;BME280;37739;50.350;7.578;2023-07-20T10:33:17;99611.94;;;23.59;42.20
47883;BME280;37739;50.350;7.578;2023-07-20T10:35:54;99595.63;;;24.30;41.58
47883;BME280;37739;50.350;7.578;2023-07-20T10:38:52;99602.16;;;24.91;39.82
47883;BME280;37739;50.350;7.578;2023-07-20T10:41:37;99588.75;;;25.36;38.79
47883;BME280;37739;50.350;7.578;2023-07-20T10:44:07;99588.91;;;25.62;39.47
47883;BME280;37739;50.350;7.578;2023-07-20T10:49:05;99578.84;;;26.08;36.79
47883;BME280;37739;50.350;7.578;2023-07-20T10:54:49;99579.16;;;25.00;38.60
47883;BME280;37739;50.350;7.578;2023-07-20T10:57:31;99571.69;;;25.52;38.07
47883;BME280;37739;50.350;7.578;2023-07-20T11:00:13;99568.44;;;25.42;37.05
47883;BME280;37739;50.350;7.578;2023-07-20T11:02:58;99571.44;;;25.28;38.03
47883;BME280;37739;50.350;7.578;2023-07-20T11:05:39;99573.38;;;24.86;38.49
47883;BME280;37739;50.350;7.578;2023-07-20T11:08:09;99573.38;;;24.50;38.75
47883;BME280;37739;50.350;7.578;2023-07-20T11:10:35;99569.38;;;24.34;40.19
47883;BME280;37739;50.350;7.578;2023-07-20T11:13:20;99566.88;;;24.29;39.28
47883;BME280;37739;50.350;7.578;2023-07-20T11:18:12;99568.81;;;24.60;40.05
47883;BME280;37739;50.350;7.578;2023-07-20T11:20:40;99560.72;;;24.30;39.54
47883;BME280;37739;50.350;7.578;2023-07-20T11:23:09;99562.38;;;23.94;41.10
47883;BME280;37739;50.350;7.578;2023-07-20T11:25:42;99570.66;;;23.74;40.45
47883;BME280;37739;50.350;7.578;2023-07-20T11:28:09;99566.56;;;23.59;41.13
47883;BME280;37739;50.350;7.578;2023-07-20T11:30:36;99571.25;;;23.86;40.93
47883;BME280;37739;50.350;7.578;2023-07-20T11:33:10;99567.44;;;24.03;40.27
47883;BME280;37739;50.350;7.578;2023-07-20T11:35:45;99573.88;;;23.86;40.50
47883;BME280;37739;50.350;7.578;2023-07-20T11:38:13;99572.31;;;23.78;40.95
47883;BME280;37739;50.350;7.578;2023-07-20T11:40:44;99569.72;;;23.75;40.95
47883;BME280;37739;50.350;7.578;2023-07-20T11:43:12;99566.09;;;23.85;41.37
47883;BME280;37739;50.350;7.578;2023-07-20T11:45:42;99572.00;;;23.93;41.01
47883;BME280;37739;50.350;7.578;2023-07-20T11:48:16;99568.75;;;23.82;40.94
47883;BME280;37739;50.350;7.578;2023-07-20T11:50:44;99560.34;;;23.64;40.51
47883;BME280;37739;50.350;7.578;2023-07-20T11:53:12;99568.41;;;23.53;41.70
47883;BME280;37739;50.350;7.578;2023-07-20T11:55:40;99553.09;;;23.79;41.61
47883;BME280;37739;50.350;7.578;2023-07-20T11:58:09;99546.66;;;23.94;41.21
47883;BME280;37739;50.350;7.578;2023-07-20T12:00:36;99545.16;;;24.22;40.74
47883;BME280;37739;50.350;7.578;2023-07-20T12:03:05;99549.00;;;24.45;38.93
47883;BME280;37739;50.350;7.578;2023-07-20T12:05:32;99555.81;;;24.54;39.86
47883;BME280;37739;50.350;7.578;2023-07-20T12:07:57;99551.88;;;24.73;39.53
47883;BME280;37739;50.350;7.578;2023-07-20T12:10:26;99552.44;;;24.84;39.57
47883;BME280;37739;50.350;7.578;2023-07-20T12:12:54;99548.72;;;25.27;38.71
47883;BME280;37739;50.350;7.578;2023-07-20T12:15:24;99550.00;;;25.11;38.20
47883;BME280;37739;50.350;7.578;2023-07-20T12:17:59;99551.91;;;25.06;38.42
47883;BME280;37739;50.350;7.578;2023-07-20T12:20:35;99552.06;;;25.33;37.25
47883;BME280;37739;50.350;7.578;2023-07-20T12:23:13;99551.13;;;25.66;37.24
47883;BME280;37739;50.350;7.578;2023-07-20T12:25:44;99555.47;;;25.36;38.50
47883;BME280;37739;50.350;7.578;2023-07-20T12:28:12;99543.72;;;25.17;38.52
47883;BME280;37739;50.350;7.578;2023-07-20T12:30:38;99548.28;;;25.10;38.91
47883;BME280;37739;50.350;7.578;2023-07-20T12:33:04;99545.28;;;24.91;37.83
47883;BME280;37739;50.350;7.578;2023-07-20T12:35:30;99539.59;;;24.74;39.04
47883;BME280;37739;50.350;7.578;2023-07-20T12:37:56;99531.63;;;24.77;38.85
47883;BME280;37739;50.350;7.578;2023-07-20T12:40:21;99538.34;;;24.54;38.88
47883;BME280;37739;50.350;7.578;2023-07-20T12:42:46;99537.56;;;24.47;38.97
47883;BME280;37739;50.350;7.578;2023-07-20T12:45:13;99538.59;;;24.42;39.07
47883;BME280;37739;50.350;7.578;2023-07-20T12:47:43;99535.72;;;24.54;38.81
47883;BME280;37739;50.350;7.578;2023-07-20T12:50:11;99524.78;;;24.71;38.32
47883;BME280;37739;50.350;7.578;2023-07-20T12:52:40;99526.25;;;24.83;38.82
47883;BME280;37739;50.350;7.578;2023-07-20T12:55:07;99531.34;;;24.89;38.25
47883;BME280;37739;50.350;7.578;2023-07-20T12:57:34;99526.38;;;24.77;38.41
47883;BME280;37739;50.350;7.578;2023-07-20T13:00:00;99522.47;;;24.93;38.64
47883;BME280;37739;50.350;7.578;2023-07-20T13:02:26;99520.91;;;24.86;37.18
47883;BME280;37739;50.350;7.578;2023-07-20T13:04:52;99533.72;;;24.98;38.32
47883;BME280;37739;50.350;7.578;2023-07-20T13:07:30;99524.19;;;24.94;36.58
47883;BME280;37739;50.350;7.578;2023-07-20T13:10:00;99523.22;;;24.98;37.25
47883;BME280;37739;50.350;7.578;2023-07-20T13:12:32;99519.47;;;26.29;36.06
47883;BME280;37739;50.350;7.578;2023-07-20T13:15:01;99521.84;;;27.40;33.18
47883;BME280;37739;50.350;7.578;2023-07-20T13:17:31;99514.81;;;27.41;34.05
47883;BME280;37739;50.350;7.578;2023-07-20T13:19:56;99506.72;;;27.22;32.87